sensor_id;sensor_type;location;lat;lon;timestamp;P1;durP1;ratioP1;P2;durP2;ratioP2
17201;SDS011;8717;53.588;10.176;2023-02-24T00:01:00;5.37;;;1.13;;
17201;SDS011;8717;53.588;10.176;2023-02-24T00:03:33;6.43;;;1.73;;
17201;SDS011;8717;53.588;10.176;2023-02-24T00:06:01;5.70;;;1.10;;
17201;SDS011;8717;53.588;10.176;2023-02-24T00:08:35;5.73;;;1.33;;
17201;SDS011;8717;53.588;10.176;2023-02-24T00:11:06;4.27;;;1.10;;
17201;SDS011;8717;53.588;10.176;2023-02-24T00:13:34;3.33;;;1.43;;
17201;SDS011;8717;53.588;10.176;2023-02-24T00:16:03;8.27;;;1.53;;
17201;SDS011;8717;53.588;10.176;2023-02-24T00:18:31;7.37;;;1.37;;
17201;SDS011;8717;53.588;10.176;2023-02-24T00:21:01;6.23;;;1.70;;
17201;SDS011;8717;53.588;10.176;2023-02-24T00:23:29;7.63;;;1.30;;
17201;SDS011;8717;53.588;10.176;2023-02-24T00:25:59;4.70;;;1.23;;
17201;SDS011;8717;53.588;10.176;2023-02-24T00:28:27;3.73;;;1.00;;
17201;SDS011;8717;53.588;10.176;2023-02-24T00:30:55;3.97;;;1.60;;
17201;SDS011;8717;53.588;10.176;2023-02-24T00:33:23;5.10;;;1.37;;
17201;SDS011;8717;53.588;10.176;2023-02-24T00:35:50;7.57;;;1.50;;
17201;SDS011;8717;53.588;10.176;2023-02-24T00:38:17;5.60;;;1.23;;
17201;SDS011;8717;53.588;10.176;2023-02-24T00:40:44;6.03;;;1.90;;
17201;SDS011;8717;53.588;10.176;2023-02-24T00:43:12;8.83;;;1.47;;
17201;SDS011;8717;53.588;10.176;2023-02-24T00:45:39;5.87;;;1.87;;
17201;SDS011;8717;53.588;10.176;2023-02-24T00:48:06;4.53;;;1.23;;
17201;SDS011;8717;53.588;10.176;2023-02-24T00:50:36;4.47;;;1.20;;
17201;SDS011;8717;53.588;10.176;2023-02-24T00:53:04;5.33;;;1.23;;
17201;SDS011;8717;53.588;10.176;2023-02-24T00:55:31;5.73;;;1.20;;
17201;SDS011;8717;53.588;10.176;2023-02-24T00:58:01;8.30;;;1.30;;
17201;SDS011;8717;53.588;10.176;2023-02-24T01:00:29;5.63;;;1.50;;
17201;SDS011;8717;53.588;10.176;2023-02-24T01:03:00;4.40;;;1.00;;
17201;SDS011;8717;53.588;10.176;2023-02-24T01:05:28;8.07;;;1.80;;
17201;SDS011;8717;53.588;10.176;2023-02-24T01:07:57;10.80;;;1.73;;
17201;SDS011;8717;53.588;10.176;2023-02-24T01:10:23;7.83;;;1.73;;
17201;SDS011;8717;53.588;10.176;2023-02-24T01:12:52;6.07;;;1.43;;
17201;SDS011;8717;53.588;10.176;2023-02-24T01:15:19;7.03;;;1.33;;
17201;SDS011;8717;53.588;10.176;2023-02-24T01:17:47;7.87;;;1.20;;
17201;SDS011;8717;53.588;10.176;2023-02-24T01:20:14;9.90;;;1.47;;
17201;SDS011;8717;53.588;10.176;2023-02-24T01:22:43;5.60;;;1.17;;
17201;SDS011;8717;53.588;10.176;2023-02-24T01:25:16;10.10;;;1.87;;
17201;SDS011;8717;53.588;10.176;2023-02-24T01:27:44;4.63;;;1.43;;
17201;SDS011;8717;53.588;10.176;2023-02-24T01:30:11;5.13;;;1.77;;
17201;SDS011;8717;53.588;10.176;2023-02-24T01:32:40;6.77;;;1.43;;
17201;SDS011;8717;53.588;10.176;2023-02-24T01:35:08;6.43;;;1.50;;
17201;SDS011;8717;53.588;10.176;2023-02-24T01:37:36;7.60;;;1.43;;
17201;SDS011;8717;53.588;10.176;2023-02-24T01:40:09;5.37;;;1.50;;
17201;SDS011;8717;53.588;10.176;2023-02-24T01:42:46;7.17;;;1.70;;
17201;SDS011;8717;53.588;10.176;2023-02-24T01:45:21;6.43;;;1.80;;
17201;SDS011;8717;53.588;10.176;2023-02-24T01:47:50;8.77;;;1.63;;
17201;SDS011;8717;53.588;10.176;2023-02-24T01:50:19;8.00;;;1.57;;
17201;SDS011;8717;53.588;10.176;2023-02-24T01:52:50;6.87;;;1.23;;
17201;SDS011;8717;53.588;10.176;2023-02-24T01:55:23;8.00;;;1.60;;
17201;SDS011;8717;53.588;10.176;2023-02-24T01:57:57;6.93;;;1.53;;
17201;SDS011;8717;53.588;10.176;2023-02-24T02:00:30;5.53;;;1.60;;
17201;SDS011;8717;53.588;10.176;2023-02-24T02:03:10;6.30;;;1.80;;
17201;SDS011;8717;53.588;10.176;2023-02-24T02:05:43;6.80;;;1.43;;
17201;SDS011;8717;53.588;10.176;2023-02-24T02:08:12;8.77;;;1.37;;
17201;SDS011;8717;53.588;10.176;2023-02-24T02:10:41;4.40;;;1.20;;
17201;SDS011;8717;53.588;10.176;2023-02-24T02:13:10;5.23;;;1.20;;
17201;SDS011;8717;53.588;10.176;2023-02-24T02:15:42;5.87;;;1.60;;
17201;SDS011;8717;53.588;10.176;2023-02-24T02:18:16;6.77;;;1.57;;
17201;SDS011;8717;53.588;10.176;2023-02-24T02:20:59;4.77;;;1.40;;
17201;SDS011;8717;53.588;10.176;2023-02-24T02:24:00;5.33;;;1.50;;
17201;SDS011;8717;53.588;10.176;2023-02-24T02:26:44;6.07;;;1.10;;
17201;SDS011;8717;53.588;10.176;2023-02-24T02:29:30;7.07;;;1.50;;
17201;SDS011;8717;53.588;10.176;2023-02-24T02:32:35;8.70;;;2.00;;
17201;SDS011;8717;53.588;10.176;2023-02-24T02:35:18;4.27;;;1.33;;
17201;SDS011;8717;53.588;10.176;2023-02-24T02:37:51;7.33;;;1.50;;
17201;SDS011;8717;53.588;10.176;2023-02-24T02:40:25;7.23;;;1.20;;
17201;SDS011;8717;53.588;10.176;2023-02-24T02:43:02;9.60;;;1.60;;
17201;SDS011;8717;53.588;10.176;2023-02-24T02:45:36;8.73;;;1.80;;
17201;SDS011;8717;53.588;10.176;2023-02-24T02:48:06;9.83;;;1.70;;
17201;SDS011;8717;53.588;10.176;2023-02-24T02:50:42;7.10;;;1.63;;
17201;SDS011;8717;53.588;10.176;2023-02-24T02:53:13;7.93;;;2.07;;
17201;SDS011;8717;53.588;10.176;2023-02-24T02:55:49;8.93;;;1.57;;
17201;SDS011;8717;53.588;10.176;2023-02-24T02:58:23;11.67;;;1.87;;
17201;SDS011;8717;53.588;10.176;2023-02-24T03:00:56;9.10;;;1.80;;
17201;SDS011;8717;53.588;10.176;2023-02-24T03:03:27;4.73;;;1.50;;
17201;SDS011;8717;53.588;10.176;2023-02-24T03:06:00;10.67;;;1.83;;
17201;SDS011;8717;53.588;10.176;2023-02-24T03:08:30;7.07;;;1.50;;
17201;SDS011;8717;53.588;10.176;2023-02-24T03:11:02;5.30;;;1.30;;
17201;SDS011;8717;53.588;10.176;2023-02-24T03:13:32;10.33;;;1.77;;
17201;SDS011;8717;53.588;10.176;2023-02-24T03:16:02;8.67;;;1.60;;
17201;SDS011;8717;53.588;10.176;2023-02-24T03:18:31;5.40;;;1.57;;
17201;SDS011;8717;53.588;10.176;2023-02-24T03:21:03;4.90;;;1.13;;
17201;SDS011;8717;53.588;10.176;2023-02-24T03:23:33;6.67;;;1.30;;
17201;SDS011;8717;53.588;10.176;2023-02-24T03:26:04;5.07;;;1.43;;
17201;SDS011;8717;53.588;10.176;2023-02-24T03:28:47;8.77;;;1.30;;
17201;SDS011;8717;53.588;10.176;2023-02-24T03:31:20;7.73;;;1.60;;
17201;SDS011;8717;53.588;10.176;2023-02-24T03:33:56;8.17;;;1.70;;
17201;SDS011;8717;53.588;10.176;2023-02-24T03:36:30;8.03;;;1.70;;
17201;SDS011;8717;53.588;10.176;2023-02-24T03:38:58;9.83;;;2.17;;
17201;SDS011;8717;53.588;10.176;2023-02-24T03:41:31;6.93;;;1.30;;
17201;SDS011;8717;53.588;10.176;2023-02-24T03:44:04;7.40;;;1.50;;
17201;SDS011;8717;53.588;10.176;2023-02-24T03:46:36;10.87;;;1.40;;
17201;SDS011;8717;53.588;10.176;2023-02-24T03:49:08;6.63;;;1.87;;
17201;SDS011;8717;53.588;10.176;2023-02-24T03:51:39;7.47;;;1.43;;
17201;SDS011;8717;53.588;10.176;2023-02-24T03:54:12;3.67;;;1.23;;
17201;SDS011;8717;53.588;10.176;2023-02-24T03:56:59;5.03;;;1.60;;
17201;SDS011;8717;53.588;10.176;2023-02-24T03:59:40;7.03;;;1.27;;
17201;SDS011;8717;53.588;10.176;2023-02-24T04:02:19;6.03;;;1.37;;
17201;SDS011;8717;53.588;10.176;2023-02-24T04:04:53;5.70;;;1.30;;
17201;SDS011;8717;53.588;10.176;2023-02-24T04:07:48;7.17;;;1.27;;
17201;SDS011;8717;53.588;10.176;2023-02-24T04:10:20;4.93;;;1.43;;
17201;SDS011;8717;53.588;10.176;2023-02-24T04:12:52;9.40;;;1.60;;
17201;SDS011;8717;53.588;10.176;2023-02-24T04:15:27;6.50;;;1.30;;
17201;SDS011;8717;53.588;10.176;2023-02-24T04:17:57;5.00;;;1.33;;
17201;SDS011;8717;53.588;10.176;2023-02-24T04:20:33;5.30;;;1.30;;
17201;SDS011;8717;53.588;10.176;2023-02-24T04:23:05;5.37;;;1.57;;
17201;SDS011;8717;53.588;10.176;2023-02-24T04:25:34;6.30;;;1.60;;
17201;SDS011;8717;53.588;10.176;2023-02-24T04:28:04;7.57;;;1.60;;
17201;SDS011;8717;53.588;10.176;2023-02-24T04:30:34;4.33;;;1.23;;
17201;SDS011;8717;53.588;10.176;2023-02-24T04:33:06;6.27;;;1.20;;
17201;SDS011;8717;53.588;10.176;2023-02-24T04:35:34;5.80;;;1.40;;
17201;SDS011;8717;53.588;10.176;2023-02-24T04:38:02;7.30;;;1.53;;
17201;SDS011;8717;53.588;10.176;2023-02-24T04:40:31;10.17;;;1.50;;
17201;SDS011;8717;53.588;10.176;2023-02-24T04:42:58;7.60;;;1.30;;
17201;SDS011;8717;53.588;10.176;2023-02-24T04:45:25;5.50;;;1.33;;
17201;SDS011;8717;53.588;10.176;2023-02-24T04:47:53;4.93;;;1.37;;
17201;SDS011;8717;53.588;10.176;2023-02-24T04:50:26;3.33;;;1.17;;
17201;SDS011;8717;53.588;10.176;2023-02-24T04:52:54;7.13;;;1.40;;
17201;SDS011;8717;53.588;10.176;2023-02-24T04:55:25;6.03;;;1.70;;
17201;SDS011;8717;53.588;10.176;2023-02-24T04:57:58;6.83;;;1.50;;
17201;SDS011;8717;53.588;10.176;2023-02-24T05:00:26;3.53;;;1.00;;
17201;SDS011;8717;53.588;10.176;2023-02-24T05:02:59;4.03;;;1.10;;
17201;SDS011;8717;53.588;10.176;2023-02-24T05:05:27;4.27;;;1.23;;
17201;SDS011;8717;53.588;10.176;2023-02-24T05:07:58;6.17;;;1.00;;
17201;SDS011;8717;53.588;10.176;2023-02-24T05:10:28;4.17;;;1.40;;
17201;SDS011;8717;53.588;10.176;2023-02-24T05:12:55;4.70;;;1.20;;
17201;SDS011;8717;53.588;10.176;2023-02-24T05:15:24;8.57;;;1.20;;
17201;SDS011;8717;53.588;10.176;2023-02-24T05:17:55;4.77;;;1.20;;
17201;SDS011;8717;53.588;10.176;2023-02-24T05:20:23;7.70;;;1.67;;
17201;SDS011;8717;53.588;10.176;2023-02-24T05:23:08;7.13;;;1.30;;
17201;SDS011;8717;53.588;10.176;2023-02-24T05:25:35;8.13;;;1.33;;
17201;SDS011;8717;53.588;10.176;2023-02-24T05:28:04;8.07;;;1.23;;
17201;SDS011;8717;53.588;10.176;2023-02-24T05:30:31;10.80;;;1.80;;
17201;SDS011;8717;53.588;10.176;2023-02-24T05:32:58;8.73;;;1.67;;
17201;SDS011;8717;53.588;10.176;2023-02-24T05:35:25;4.07;;;1.40;;
17201;SDS011;8717;53.588;10.176;2023-02-24T05:37:52;6.17;;;1.33;;
17201;SDS011;8717;53.588;10.176;2023-02-24T05:40:23;6.37;;;1.97;;
17201;SDS011;8717;53.588;10.176;2023-02-24T05:42:50;6.07;;;1.50;;
17201;SDS011;8717;53.588;10.176;2023-02-24T05:45:19;7.17;;;1.40;;
17201;SDS011;8717;53.588;10.176;2023-02-24T05:47:46;7.37;;;1.20;;
17201;SDS011;8717;53.588;10.176;2023-02-24T05:50:13;6.07;;;1.20;;
17201;SDS011;8717;53.588;10.176;2023-02-24T05:52:41;9.20;;;1.43;;
17201;SDS011;8717;53.588;10.176;2023-02-24T05:55:09;4.53;;;1.53;;
17201;SDS011;8717;53.588;10.176;2023-02-24T05:57:38;6.73;;;1.57;;
17201;SDS011;8717;53.588;10.176;2023-02-24T06:00:06;5.03;;;1.43;;
17201;SDS011;8717;53.588;10.176;2023-02-24T06:02:40;8.57;;;2.03;;
17201;SDS011;8717;53.588;10.176;2023-02-24T06:05:13;4.53;;;1.30;;
17201;SDS011;8717;53.588;10.176;2023-02-24T06:07:49;8.40;;;1.50;;
17201;SDS011;8717;53.588;10.176;2023-02-24T06:10:27;6.13;;;1.40;;
17201;SDS011;8717;53.588;10.176;2023-02-24T06:12:55;8.20;;;1.90;;
17201;SDS011;8717;53.588;10.176;2023-02-24T06:15:22;6.97;;;1.73;;
17201;SDS011;8717;53.588;10.176;2023-02-24T06:17:51;6.37;;;1.60;;
17201;SDS011;8717;53.588;10.176;2023-02-24T06:20:21;7.77;;;2.13;;
17201;SDS011;8717;53.588;10.176;2023-02-24T06:22:51;7.43;;;1.73;;
17201;SDS011;8717;53.588;10.176;2023-02-24T06:25:19;4.97;;;1.40;;
17201;SDS011;8717;53.588;10.176;2023-02-24T06:27:49;8.10;;;1.60;;
17201;SDS011;8717;53.588;10.176;2023-02-24T06:30:20;7.50;;;1.67;;
17201;SDS011;8717;53.588;10.176;2023-02-24T06:32:48;9.63;;;1.80;;
17201;SDS011;8717;53.588;10.176;2023-02-24T06:35:18;7.50;;;1.73;;
17201;SDS011;8717;53.588;10.176;2023-02-24T06:37:47;4.83;;;1.80;;
17201;SDS011;8717;53.588;10.176;2023-02-24T06:40:14;10.63;;;2.43;;
17201;SDS011;8717;53.588;10.176;2023-02-24T06:42:45;5.90;;;1.70;;
17201;SDS011;8717;53.588;10.176;2023-02-24T06:45:12;5.10;;;1.70;;
17201;SDS011;8717;53.588;10.176;2023-02-24T06:47:40;9.47;;;2.10;;
17201;SDS011;8717;53.588;10.176;2023-02-24T06:50:09;6.37;;;1.60;;
17201;SDS011;8717;53.588;10.176;2023-02-24T06:52:40;8.20;;;1.60;;
17201;SDS011;8717;53.588;10.176;2023-02-24T06:55:08;4.47;;;1.80;;
17201;SDS011;8717;53.588;10.176;2023-02-24T06:57:50;8.43;;;2.50;;
17201;SDS011;8717;53.588;10.176;2023-02-24T07:00:24;6.97;;;2.27;;
17201;SDS011;8717;53.588;10.176;2023-02-24T07:03:01;6.00;;;2.40;;
17201;SDS011;8717;53.588;10.176;2023-02-24T07:05:40;4.20;;;2.33;;
17201;SDS011;8717;53.588;10.176;2023-02-24T07:08:14;9.27;;;2.80;;
17201;SDS011;8717;53.588;10.176;2023-02-24T07:10:50;6.40;;;1.80;;
17201;SDS011;8717;53.588;10.176;2023-02-24T07:13:17;7.17;;;2.00;;
17201;SDS011;8717;53.588;10.176;2023-02-24T07:15:44;5.53;;;1.93;;
17201;SDS011;8717;53.588;10.176;2023-02-24T07:18:13;6.10;;;2.40;;
17201;SDS011;8717;53.588;10.176;2023-02-24T07:20:42;5.53;;;1.93;;
17201;SDS011;8717;53.588;10.176;2023-02-24T07:23:10;7.07;;;1.90;;
17201;SDS011;8717;53.588;10.176;2023-02-24T07:25:37;6.03;;;2.07;;
17201;SDS011;8717;53.588;10.176;2023-02-24T07:28:05;7.83;;;1.80;;
17201;SDS011;8717;53.588;10.176;2023-02-24T07:30:32;5.67;;;2.20;;
17201;SDS011;8717;53.588;10.176;2023-02-24T07:32:59;7.13;;;2.10;;
17201;SDS011;8717;53.588;10.176;2023-02-24T07:35:27;5.43;;;1.90;;
17201;SDS011;8717;53.588;10.176;2023-02-24T07:37:56;5.70;;;1.90;;
17201;SDS011;8717;53.588;10.176;2023-02-24T07:40:26;6.50;;;2.43;;
17201;SDS011;8717;53.588;10.176;2023-02-24T07:42:53;5.30;;;1.70;;
17201;SDS011;8717;53.588;10.176;2023-02-24T07:45:21;7.67;;;2.17;;
17201;SDS011;8717;53.588;10.176;2023-02-24T07:47:48;5.20;;;2.50;;
17201;SDS011;8717;53.588;10.176;2023-02-24T07:50:15;5.57;;;2.40;;
17201;SDS011;8717;53.588;10.176;2023-02-24T07:52:42;4.97;;;2.07;;
17201;SDS011;8717;53.588;10.176;2023-02-24T07:55:13;6.80;;;2.40;;
17201;SDS011;8717;53.588;10.176;2023-02-24T07:57:41;5.40;;;2.60;;
17201;SDS011;8717;53.588;10.176;2023-02-24T08:00:11;7.47;;;2.90;;
17201;SDS011;8717;53.588;10.176;2023-02-24T08:02:43;5.07;;;2.40;;
17201;SDS011;8717;53.588;10.176;2023-02-24T08:05:11;7.53;;;3.07;;
17201;SDS011;8717;53.588;10.176;2023-02-24T08:07:37;7.37;;;2.63;;
17201;SDS011;8717;53.588;10.176;2023-02-24T08:10:05;5.93;;;2.60;;
17201;SDS011;8717;53.588;10.176;2023-02-24T08:12:40;6.03;;;2.50;;
17201;SDS011;8717;53.588;10.176;2023-02-24T08:15:11;5.37;;;2.30;;
17201;SDS011;8717;53.588;10.176;2023-02-24T08:17:48;5.07;;;2.17;;
17201;SDS011;8717;53.588;10.176;2023-02-24T08:20:16;15.60;;;2.90;;
17201;SDS011;8717;53.588;10.176;2023-02-24T08:22:48;5.93;;;2.30;;
17201;SDS011;8717;53.588;10.176;2023-02-24T08:25:22;5.13;;;2.80;;
17201;SDS011;8717;53.588;10.176;2023-02-24T08:27:56;4.53;;;2.70;;
17201;SDS011;8717;53.588;10.176;2023-02-24T08:30:23;7.90;;;2.57;;
17201;SDS011;8717;53.588;10.176;2023-02-24T08:32:54;5.57;;;3.10;;
17201;SDS011;8717;53.588;10.176;2023-02-24T08:35:27;6.13;;;3.20;;
17201;SDS011;8717;53.588;10.176;2023-02-24T08:37:57;6.47;;;3.80;;
17201;SDS011;8717;53.588;10.176;2023-02-24T08:40:32;5.47;;;3.70;;
17201;SDS011;8717;53.588;10.176;2023-02-24T08:43:06;6.77;;;4.00;;
17201;SDS011;8717;53.588;10.176;2023-02-24T08:45:44;7.27;;;4.07;;
17201;SDS011;8717;53.588;10.176;2023-02-24T08:48:14;6.87;;;4.90;;
17201;SDS011;8717;53.588;10.176;2023-02-24T08:51:08;6.03;;;4.70;;
17201;SDS011;8717;53.588;10.176;2023-02-24T08:53:39;6.03;;;4.80;;
17201;SDS011;8717;53.588;10.176;2023-02-24T08:56:09;6.53;;;4.47;;
17201;SDS011;8717;53.588;10.176;2023-02-24T08:58:40;7.50;;;4.60;;
17201;SDS011;8717;53.588;10.176;2023-02-24T09:01:12;6.90;;;4.93;;
17201;SDS011;8717;53.588;10.176;2023-02-24T09:03:43;6.33;;;4.80;;
17201;SDS011;8717;53.588;10.176;2023-02-24T09:06:11;7.03;;;4.47;;
17201;SDS011;8717;53.588;10.176;2023-02-24T09:08:49;6.47;;;4.67;;
17201;SDS011;8717;53.588;10.176;2023-02-24T09:11:38;6.30;;;3.87;;
17201;SDS011;8717;53.588;10.176;2023-02-24T09:14:09;6.63;;;3.80;;
17201;SDS011;8717;53.588;10.176;2023-02-24T09:16:41;7.37;;;4.03;;
17201;SDS011;8717;53.588;10.176;2023-02-24T09:19:36;5.10;;;3.77;;
17201;SDS011;8717;53.588;10.176;2023-02-24T09:22:23;6.90;;;3.10;;
17201;SDS011;8717;53.588;10.176;2023-02-24T09:24:57;3.67;;;2.67;;
17201;SDS011;8717;53.588;10.176;2023-02-24T09:27:46;3.30;;;2.93;;
17201;SDS011;8717;53.588;10.176;2023-02-24T09:30:18;5.40;;;3.10;;
17201;SDS011;8717;53.588;10.176;2023-02-24T09:33:04;4.93;;;3.03;;
17201;SDS011;8717;53.588;10.176;2023-02-24T09:35:33;4.07;;;3.27;;
17201;SDS011;8717;53.588;10.176;2023-02-24T09:38:01;4.77;;;3.40;;
17201;SDS011;8717;53.588;10.176;2023-02-24T09:40:30;6.50;;;3.30;;
17201;SDS011;8717;53.588;10.176;2023-02-24T09:43:04;5.17;;;3.47;;
17201;SDS011;8717;53.588;10.176;2023-02-24T09:45:42;4.90;;;3.37;;
17201;SDS011;8717;53.588;10.176;2023-02-24T09:48:19;5.30;;;3.20;;
17201;SDS011;8717;53.588;10.176;2023-02-24T09:50:49;4.17;;;3.70;;
17201;SDS011;8717;53.588;10.176;2023-02-24T09:53:30;4.13;;;3.37;;
17201;SDS011;8717;53.588;10.176;2023-02-24T09:56:05;6.03;;;3.50;;
17201;SDS011;8717;53.588;10.176;2023-02-24T09:58:42;4.30;;;3.40;;
17201;SDS011;8717;53.588;10.176;2023-02-24T10:01:19;3.70;;;3.30;;
17201;SDS011;8717;53.588;10.176;2023-02-24T10:03:58;4.70;;;3.90;;
17201;SDS011;8717;53.588;10.176;2023-02-24T10:06:33;7.17;;;3.93;;
17201;SDS011;8717;53.588;10.176;2023-02-24T10:09:12;4.80;;;4.17;;
17201;SDS011;8717;53.588;10.176;2023-02-24T10:11:49;6.70;;;4.20;;
17201;SDS011;8717;53.588;10.176;2023-02-24T10:14:28;7.20;;;4.03;;
17201;SDS011;8717;53.588;10.176;2023-02-24T10:17:07;5.03;;;3.97;;
17201;SDS011;8717;53.588;10.176;2023-02-24T10:19:47;5.40;;;3.73;;
17201;SDS011;8717;53.588;10.176;2023-02-24T10:22:25;5.13;;;4.13;;
17201;SDS011;8717;53.588;10.176;2023-02-24T10:25:01;5.50;;;3.77;;
17201;SDS011;8717;53.588;10.176;2023-02-24T10:27:44;7.70;;;3.83;;
17201;SDS011;8717;53.588;10.176;2023-02-24T10:30:25;7.27;;;4.63;;
17201;SDS011;8717;53.588;10.176;2023-02-24T10:33:08;6.40;;;5.20;;
17201;SDS011;8717;53.588;10.176;2023-02-24T10:35:43;7.13;;;5.80;;
17201;SDS011;8717;53.588;10.176;2023-02-24T10:38:10;8.97;;;6.23;;
17201;SDS011;8717;53.588;10.176;2023-02-24T10:40:43;7.13;;;6.27;;
17201;SDS011;8717;53.588;10.176;2023-02-24T10:43:21;8.73;;;6.63;;
17201;SDS011;8717;53.588;10.176;2023-02-24T10:45:54;8.00;;;6.23;;
17201;SDS011;8717;53.588;10.176;2023-02-24T10:48:31;9.43;;;6.70;;
17201;SDS011;8717;53.588;10.176;2023-02-24T10:51:12;10.97;;;7.17;;
17201;SDS011;8717;53.588;10.176;2023-02-24T10:53:45;8.67;;;7.27;;
17201;SDS011;8717;53.588;10.176;2023-02-24T10:56:17;12.17;;;6.73;;
17201;SDS011;8717;53.588;10.176;2023-02-24T10:59:08;10.97;;;6.60;;
17201;SDS011;8717;53.588;10.176;2023-02-24T11:02:13;8.07;;;7.23;;
17201;SDS011;8717;53.588;10.176;2023-02-24T11:04:52;7.80;;;6.63;;
17201;SDS011;8717;53.588;10.176;2023-02-24T11:07:28;8.87;;;7.13;;
17201;SDS011;8717;53.588;10.176;2023-02-24T11:10:10;9.77;;;7.37;;
17201;SDS011;8717;53.588;10.176;2023-02-24T11:12:41;9.40;;;7.43;;
17201;SDS011;8717;53.588;10.176;2023-02-24T11:15:25;9.07;;;7.50;;
17201;SDS011;8717;53.588;10.176;2023-02-24T11:18:13;9.77;;;7.80;;
17201;SDS011;8717;53.588;10.176;2023-02-24T11:20:45;7.93;;;6.97;;
17201;SDS011;8717;53.588;10.176;2023-02-24T11:23:15;8.30;;;6.90;;
17201;SDS011;8717;53.588;10.176;2023-02-24T11:25:46;9.33;;;6.60;;
17201;SDS011;8717;53.588;10.176;2023-02-24T11:28:15;9.47;;;7.53;;
17201;SDS011;8717;53.588;10.176;2023-02-24T11:31:04;7.97;;;7.17;;
17201;SDS011;8717;53.588;10.176;2023-02-24T11:33:43;7.63;;;6.80;;
17201;SDS011;8717;53.588;10.176;2023-02-24T11:36:22;9.20;;;7.13;;
17201;SDS011;8717;53.588;10.176;2023-02-24T11:39:00;11.30;;;7.60;;
17201;SDS011;8717;53.588;10.176;2023-02-24T11:41:35;8.67;;;7.33;;
17201;SDS011;8717;53.588;10.176;2023-02-24T11:44:08;10.13;;;6.67;;
17201;SDS011;8717;53.588;10.176;2023-02-24T11:46:42;13.03;;;6.77;;
17201;SDS011;8717;53.588;10.176;2023-02-24T11:49:17;12.20;;;6.70;;
17201;SDS011;8717;53.588;10.176;2023-02-24T11:51:53;8.70;;;6.90;;
17201;SDS011;8717;53.588;10.176;2023-02-24T11:54:22;11.20;;;6.50;;
17201;SDS011;8717;53.588;10.176;2023-02-24T11:56:53;8.23;;;6.03;;
17201;SDS011;8717;53.588;10.176;2023-02-24T11:59:26;10.83;;;6.87;;
17201;SDS011;8717;53.588;10.176;2023-02-24T12:02:00;7.77;;;6.60;;
17201;SDS011;8717;53.588;10.176;2023-02-24T12:04:33;8.83;;;6.97;;
17201;SDS011;8717;53.588;10.176;2023-02-24T12:07:05;9.40;;;6.83;;
17201;SDS011;8717;53.588;10.176;2023-02-24T12:09:39;9.10;;;6.73;;
17201;SDS011;8717;53.588;10.176;2023-02-24T12:12:10;10.70;;;6.80;;
17201;SDS011;8717;53.588;10.176;2023-02-24T12:14:44;10.40;;;7.37;;
17201;SDS011;8717;53.588;10.176;2023-02-24T12:17:16;9.60;;;7.20;;
17201;SDS011;8717;53.588;10.176;2023-02-24T12:19:57;8.40;;;6.80;;
17201;SDS011;8717;53.588;10.176;2023-02-24T12:22:31;7.67;;;6.43;;
17201;SDS011;8717;53.588;10.176;2023-02-24T12:25:10;9.73;;;7.17;;
17201;SDS011;8717;53.588;10.176;2023-02-24T12:27:40;10.30;;;7.03;;
17201;SDS011;8717;53.588;10.176;2023-02-24T12:30:23;9.80;;;6.43;;
17201;SDS011;8717;53.588;10.176;2023-02-24T12:33:15;8.40;;;6.30;;
17201;SDS011;8717;53.588;10.176;2023-02-24T12:36:03;9.80;;;6.00;;
17201;SDS011;8717;53.588;10.176;2023-02-24T12:38:48;8.63;;;6.03;;
17201;SDS011;8717;53.588;10.176;2023-02-24T12:41:26;6.10;;;5.50;;
17201;SDS011;8717;53.588;10.176;2023-02-24T12:44:06;8.23;;;5.10;;
17201;SDS011;8717;53.588;10.176;2023-02-24T12:46:44;11.30;;;5.30;;
17201;SDS011;8717;53.588;10.176;2023-02-24T12:49:21;9.57;;;5.80;;
17201;SDS011;8717;53.588;10.176;2023-02-24T12:52:04;8.93;;;5.67;;
17201;SDS011;8717;53.588;10.176;2023-02-24T12:54:42;9.10;;;6.20;;
17201;SDS011;8717;53.588;10.176;2023-02-24T12:57:18;6.83;;;5.90;;
17201;SDS011;8717;53.588;10.176;2023-02-24T12:59:53;6.60;;;5.70;;
17201;SDS011;8717;53.588;10.176;2023-02-24T13:02:22;8.70;;;6.20;;
17201;SDS011;8717;53.588;10.176;2023-02-24T13:04:57;7.90;;;5.57;;
17201;SDS011;8717;53.588;10.176;2023-02-24T13:07:39;8.23;;;5.53;;
17201;SDS011;8717;53.588;10.176;2023-02-24T13:10:19;8.07;;;4.90;;
17201;SDS011;8717;53.588;10.176;2023-02-24T13:12:58;11.60;;;4.43;;
17201;SDS011;8717;53.588;10.176;2023-02-24T13:15:32;7.40;;;4.20;;
17201;SDS011;8717;53.588;10.176;2023-02-24T13:17:59;11.00;;;4.93;;
17201;SDS011;8717;53.588;10.176;2023-02-24T13:20:28;11.37;;;4.13;;
17201;SDS011;8717;53.588;10.176;2023-02-24T13:22:56;9.13;;;4.70;;
17201;SDS011;8717;53.588;10.176;2023-02-24T13:25:27;9.70;;;4.93;;
17201;SDS011;8717;53.588;10.176;2023-02-24T13:27:58;11.40;;;4.63;;
17201;SDS011;8717;53.588;10.176;2023-02-24T13:30:34;10.13;;;4.67;;
17201;SDS011;8717;53.588;10.176;2023-02-24T13:33:05;11.60;;;4.27;;
17201;SDS011;8717;53.588;10.176;2023-02-24T13:35:46;8.27;;;4.50;;
17201;SDS011;8717;53.588;10.176;2023-02-24T13:38:24;13.40;;;4.70;;
17201;SDS011;8717;53.588;10.176;2023-02-24T13:41:06;7.37;;;3.70;;
17201;SDS011;8717;53.588;10.176;2023-02-24T13:43:34;9.67;;;4.53;;
17201;SDS011;8717;53.588;10.176;2023-02-24T13:46:02;10.97;;;4.80;;
17201;SDS011;8717;53.588;10.176;2023-02-24T13:48:49;7.43;;;3.90;;
17201;SDS011;8717;53.588;10.176;2023-02-24T13:51:32;8.37;;;4.60;;
17201;SDS011;8717;53.588;10.176;2023-02-24T13:54:24;7.63;;;4.13;;
17201;SDS011;8717;53.588;10.176;2023-02-24T13:57:21;11.70;;;4.53;;
17201;SDS011;8717;53.588;10.176;2023-02-24T14:00:02;11.10;;;5.23;;
17201;SDS011;8717;53.588;10.176;2023-02-24T14:02:39;8.73;;;4.40;;
17201;SDS011;8717;53.588;10.176;2023-02-24T14:05:08;12.53;;;4.67;;
17201;SDS011;8717;53.588;10.176;2023-02-24T14:07:38;12.97;;;3.90;;
17201;SDS011;8717;53.588;10.176;2023-02-24T14:10:13;12.77;;;3.53;;
17201;SDS011;8717;53.588;10.176;2023-02-24T14:12:44;8.30;;;3.20;;
17201;SDS011;8717;53.588;10.176;2023-02-24T14:15:14;8.37;;;2.43;;
17201;SDS011;8717;53.588;10.176;2023-02-24T14:17:52;10.30;;;2.63;;
17201;SDS011;8717;53.588;10.176;2023-02-24T14:20:21;14.57;;;2.90;;
17201;SDS011;8717;53.588;10.176;2023-02-24T14:22:49;7.20;;;2.67;;
17201;SDS011;8717;53.588;10.176;2023-02-24T14:25:18;8.13;;;2.40;;
17201;SDS011;8717;53.588;10.176;2023-02-24T14:27:47;11.30;;;2.90;;
17201;SDS011;8717;53.588;10.176;2023-02-24T14:30:20;10.03;;;2.23;;
17201;SDS011;8717;53.588;10.176;2023-02-24T14:32:52;11.93;;;2.40;;
17201;SDS011;8717;53.588;10.176;2023-02-24T14:35:19;12.23;;;2.20;;
17201;SDS011;8717;53.588;10.176;2023-02-24T14:37:52;6.43;;;1.97;;
17201;SDS011;8717;53.588;10.176;2023-02-24T14:40:18;8.37;;;2.07;;
17201;SDS011;8717;53.588;10.176;2023-02-24T14:42:51;10.80;;;2.20;;
17201;SDS011;8717;53.588;10.176;2023-02-24T14:45:20;8.40;;;2.27;;
17201;SDS011;8717;53.588;10.176;2023-02-24T14:47:49;12.00;;;2.43;;
17201;SDS011;8717;53.588;10.176;2023-02-24T14:50:17;9.40;;;2.43;;
17201;SDS011;8717;53.588;10.176;2023-02-24T14:52:48;8.80;;;1.80;;
17201;SDS011;8717;53.588;10.176;2023-02-24T14:55:23;11.10;;;1.70;;
17201;SDS011;8717;53.588;10.176;2023-02-24T14:57:56;8.80;;;2.47;;
17201;SDS011;8717;53.588;10.176;2023-02-24T15:00:27;12.23;;;2.53;;
17201;SDS011;8717;53.588;10.176;2023-02-24T15:03:01;10.57;;;2.43;;
17201;SDS011;8717;53.588;10.176;2023-02-24T15:05:31;10.30;;;2.10;;
17201;SDS011;8717;53.588;10.176;2023-02-24T15:07:58;12.50;;;2.67;;
17201;SDS011;8717;53.588;10.176;2023-02-24T15:10:28;9.00;;;1.90;;
17201;SDS011;8717;53.588;10.176;2023-02-24T15:12:58;8.57;;;2.13;;
17201;SDS011;8717;53.588;10.176;2023-02-24T15:15:33;13.90;;;2.33;;
17201;SDS011;8717;53.588;10.176;2023-02-24T15:18:07;9.67;;;2.30;;
17201;SDS011;8717;53.588;10.176;2023-02-24T15:20:44;7.83;;;2.03;;